Time;durP1;ratioP1;P1;durP2;ratioP2;P2;SDS_P1;SDS_P2;PMS_P1;PMS_P2;Temp;Humidity;BMP_temperature;BMP_pressure;BME280_temperature;BME280_humidity;BME280_pressure;Samples;Min_cycle;Max_cycle;Signal;HPM_P1;HPM_P2
2021/12/14 03:45:40;;;;;;;28.25;18.05;;;8.40;99.90;;;;;;5400969;25;20065;-82
2021/12/14 03:48:07;;;;;;;26.45;18.67;;;8.40;99.90;;;;;;4668056;30;20045;-82
2021/12/14 03:50:41;;;;;;;26.75;18.02;;;8.50;99.90;;;;;;4656667;30;20216;-82
2021/12/14 03:53:09;;;;;;;28.00;18.10;;;8.50;99.90;;;;;;4685284;30;20033;-82
2021/12/14 03:55:45;;;;;;;28.15;18.58;;;8.50;99.90;;;;;;4690642;30;20033;-82
2021/12/14 03:58:20;;;;;;;27.05;17.90;;;8.60;99.90;;;;;;4692925;30;20104;-82
2021/12/14 04:00:59;;;;;;;24.48;16.65;;;8.60;99.90;;;;;;4691953;30;20080;-81
2021/12/14 04:03:32;;;;;;;;;;;8.70;99.90;;;;;;4692022;30;20034;-81
2021/12/14 04:06:09;;;;;;;25.52;16.75;;;8.70;99.90;;;;;;4683012;30;19919;-81
2021/12/14 04:08:36;;;;;;;23.17;16.65;;;8.70;99.90;;;;;;4683362;30;20356;-81
2021/12/14 04:11:05;;;;;;;24.45;16.83;;;8.80;99.90;;;;;;4691316;30;20116;-81
2021/12/14 04:13:37;;;;;;;22.40;15.98;;;8.80;99.90;;;;;;4699728;30;20343;-81
2021/12/14 04:16:10;;;;;;;26.83;15.73;;;8.80;99.90;;;;;;4682843;30;20166;-82
2021/12/14 04:18:36;;;;;;;23.27;15.63;;;8.80;99.90;;;;;;4694204;30;20065;-81
2021/12/14 04:21:03;;;;;;;;;;;8.80;99.90;;;;;;4686190;30;20273;-82
2021/12/14 04:23:36;;;;;;;23.17;17.02;;;8.80;99.90;;;;;;4692460;30;19912;-82
2021/12/14 04:26:06;;;;;;;25.45;16.35;;;8.80;99.90;;;;;;4701427;30;20037;-81
2021/12/14 04:28:38;;;;;;;25.63;15.65;;;8.80;99.90;;;;;;4678989;30;20068;-83
2021/12/14 04:31:04;;;;;;;21.30;15.55;;;8.80;99.90;;;;;;4698965;30;20396;-83
2021/12/14 04:33:36;;;;;;;24.42;15.75;;;8.80;99.90;;;;;;4696070;30;20036;-83
2021/12/14 04:36:09;;;;;;;27.67;16.67;;;8.90;99.90;;;;;;4695694;30;20041;-83
2021/12/14 04:38:45;;;;;;;23.42;16.13;;;8.80;99.90;;;;;;4678314;30;20112;-82
2021/12/14 04:52:11;;;;;;;23.08;15.82;;;8.90;99.90;;;;;;4681480;30;20104;-81
2021/12/14 04:54:40;;;;;;;22.17;15.82;;;8.90;99.90;;;;;;4676134;30;20030;-81
2021/12/14 04:57:30;;;;;;;20.42;14.00;;;8.90;99.90;;;;;;4675802;30;20325;-81
2021/12/14 05:00:14;;;;;;;19.83;14.13;;;9.00;99.90;;;;;;4674721;30;20080;-81
2021/12/14 05:02:47;;;;;;;24.08;15.07;;;8.90;99.90;;;;;;4674369;30;20060;-82
2021/12/14 05:05:24;;;;;;;24.23;15.20;;;8.90;99.90;;;;;;4676433;30;20314;-82
2021/12/14 05:10:46;;;;;;;23.45;14.25;;;9.00;99.90;;;;;;4684617;30;20322;-81
2021/12/14 05:13:12;;;;;;;21.27;14.63;;;9.00;99.90;;;;;;4681273;30;20061;-81
2021/12/14 05:15:41;;;;;;;20.93;14.07;;;9.00;99.90;;;;;;4683913;30;20097;-82
2021/12/14 05:18:11;;;;;;;20.92;14.35;;;9.00;99.90;;;;;;4680507;30;20025;-81
2021/12/14 05:20:42;;;;;;;20.80;14.32;;;9.00;99.90;;;;;;4707193;30;20044;-81
2021/12/14 05:23:09;;;;;;;23.77;14.48;;;9.00;99.90;;;;;;4661522;30;20108;-81
2021/12/14 05:25:38;;;;;;;22.50;13.67;;;8.90;99.90;;;;;;4670581;30;20112;-82
2021/12/14 05:28:13;;;;;;;22.00;14.52;;;8.90;99.90;;;;;;4681208;30;20044;-82
2021/12/14 05:30:45;;;;;;;20.13;13.73;;;9.00;99.90;;;;;;4680816;30;20034;-82
2021/12/14 05:33:21;;;;;;;21.98;14.30;;;9.00;99.90;;;;;;4678622;30;20041;-81
2021/12/14 05:35:50;;;;;;;19.48;13.93;;;9.00;99.90;;;;;;4693777;30;20048;-81
2021/12/14 05:38:23;;;;;;;22.45;14.18;;;8.90;99.90;;;;;;4688195;30;20241;-82
2021/12/14 05:43:26;;;;;;;20.50;13.85;;;8.90;99.90;;;;;;4671600;30;20094;-80
2021/12/14 05:46:05;;;;;;;20.50;14.45;;;8.90;99.90;;;;;;4679064;30;20057;-80
2021/12/14 05:48:41;;;;;;;22.67;14.20;;;8.90;99.90;;;;;;4675954;30;20057;-82
2021/12/14 05:51:09;;;;;;;22.77;15.60;;;8.90;99.90;;;;;;4650086;30;20029;-82
2021/12/14 05:53:44;;;;;;;23.75;16.27;;;8.90;99.90;;;;;;4676277;30;20054;-82
2021/12/14 05:56:21;;;;;;;32.80;20.58;;;8.90;99.90;;;;;;4676440;30;20040;-82
2021/12/14 05:58:49;;;;;;;34.67;22.05;;;8.90;99.90;;;;;;4678126;30;20089;-82
2021/12/14 06:01:20;;;;;;;34.40;20.77;;;8.90;99.90;;;;;;4666290;30;20054;-82
2021/12/14 06:04:06;;;;;;;31.63;19.70;;;8.80;99.90;;;;;;4678157;30;20034;-82
2021/12/14 06:06:42;;;;;;;28.00;19.23;;;8.80;99.90;;;;;;4676144;30;20041;-82
2021/12/14 06:09:14;;;;;;;31.58;19.88;;;8.80;99.90;;;;;;4661735;30;20034;-83
2021/12/14 06:12:00;;;;;;;29.33;16.85;;;8.80;99.90;;;;;;4688622;30;20345;-83
2021/12/14 06:14:28;;;;;;;34.60;18.25;;;8.80;99.90;;;;;;4684361;30;20036;-82
2021/12/14 06:16:58;;;;;;;29.58;18.30;;;8.80;99.90;;;;;;4674228;30;20041;-82
2021/12/14 06:19:34;;;;;;;29.48;18.65;;;8.80;99.90;;;;;;4661785;30;20042;-82
2021/12/14 06:22:11;;;;;;;34.47;19.50;;;8.80;99.90;;;;;;4675195;30;20061;-81
2021/12/14 06:24:41;;;;;;;31.45;18.40;;;8.80;99.90;;;;;;4691549;30;20345;-81
2021/12/14 06:27:12;;;;;;;34.33;19.10;;;8.70;99.90;;;;;;4669444;30;20045;-82
2021/12/14 06:29:44;;;;;;;46.40;20.00;;;8.70;99.90;;;;;;4685429;30;20113;-81
2021/12/14 06:32:20;;;;;;;32.85;17.90;;;8.70;99.90;;;;;;4670389;30;20040;-82
2021/12/14 06:34:50;;;;;;;33.35;19.17;;;8.70;99.90;;;;;;4699999;30;20109;-82
2021/12/14 06:37:23;;;;;;;30.58;18.95;;;8.70;99.90;;;;;;4684634;30;20037;-82
2021/12/14 06:40:10;;;;;;;34.42;19.20;;;8.70;99.90;;;;;;4678575;30;20285;-81
2021/12/14 06:42:40;;;;;;;31.52;19.38;;;8.70;99.90;;;;;;4675105;30;20034;-81
2021/12/14 06:45:11;;;;;;;30.92;18.92;;;8.70;99.90;;;;;;4667773;30;20251;-81
2021/12/14 06:47:40;;;;;;;30.77;18.35;;;8.70;99.90;;;;;;4664674;30;20061;-81
2021/12/14 06:50:12;;;;;;;32.72;19.40;;;8.80;99.90;;;;;;4666731;30;20113;-81
2021/12/14 06:52:39;;;;;;;31.52;17.50;;;8.80;99.90;;;;;;4677269;30;20345;-82
2021/12/14 06:55:25;;;;;;;29.55;19.40;;;8.70;99.90;;;;;;4664271;30;20210;-82
2021/12/14 06:58:27;;;;;;;28.90;19.15;;;8.70;99.90;;;;;;4611714;31;20248;-81
2021/12/14 07:01:05;;;;;;;28.42;17.95;;;8.60;99.90;;;;;;4606809;31;20220;-81
2021/12/14 07:03:50;;;;;;;30.27;17.98;;;8.60;99.90;;;;;;4612860;31;20043;-81
2021/12/14 07:06:31;;;;;;;31.60;20.02;;;8.70;99.90;;;;;;4625094;31;20047;-81
2021/12/14 07:09:05;;;;;;;30.23;19.58;;;8.80;99.90;;;;;;4609790;31;20059;-81
2021/12/14 07:11:31;;;;;;;32.25;20.40;;;8.70;99.90;;;;;;4612171;31;20038;-81
2021/12/14 07:13:57;;;;;;;30.17;19.15;;;8.70;99.90;;;;;;4626695;31;20368;-81
2021/12/14 07:16:30;;;;;;;39.50;20.20;;;8.70;99.90;;;;;;4622430;31;20047;-82
2021/12/14 07:18:59;;;;;;;32.85;19.27;;;8.70;99.90;;;;;;4613023;31;20038;-82
2021/12/14 07:21:44;;;;;;;38.13;19.88;;;8.80;99.90;;;;;;4625443;31;20094;-82
2021/12/14 07:24:32;;;;;;;42.85;20.20;;;8.80;99.90;;;;;;4624680;31;20433;-82
2021/12/14 07:27:19;;;;;;;28.58;18.35;;;8.80;99.90;;;;;;4611423;31;20086;-82
2021/12/14 07:29:46;;;;;;;33.67;17.90;;;8.80;99.90;;;;;;4608573;31;20378;-82
2021/12/14 07:32:12;;;;;;;39.65;17.83;;;8.80;99.90;;;;;;4621222;31;20039;-82
2021/12/14 07:34:38;;;;;;;29.45;18.70;;;8.80;99.90;;;;;;4629274;30;20038;-82
2021/12/14 07:37:04;;;;;;;28.27;19.23;;;8.90;99.90;;;;;;4667734;30;20407;-82
2021/12/14 07:39:30;;;;;;;27.93;17.97;;;9.00;99.90;;;;;;4652548;30;20049;-81
2021/12/14 07:41:59;;;;;;;28.67;17.50;;;9.00;99.90;;;;;;4668201;30;20029;-82
2021/12/14 07:44:37;;;;;;;34.05;19.88;;;9.10;99.90;;;;;;4680621;30;20038;-81
2021/12/14 07:47:14;;;;;;;43.28;23.33;;;9.20;99.90;;;;;;4683501;30;20092;-81
2021/12/14 07:49:53;;;;;;;34.30;20.08;;;9.30;99.90;;;;;;4679862;30;20076;-81
2021/12/14 07:52:38;;;;;;;31.67;20.23;;;9.30;99.90;;;;;;4674598;30;20050;-82
2021/12/14 07:55:19;;;;;;;27.83;17.77;;;9.30;99.90;;;;;;4678223;30;20117;-82
2021/12/14 07:57:47;;;;;;;29.40;18.00;;;9.40;99.90;;;;;;4679139;30;20042;-82
2021/12/14 08:00:26;;;;;;;30.67;20.38;;;9.40;99.90;;;;;;4683237;30;20326;-82
2021/12/14 08:02:54;;;;;;;29.50;19.75;;;9.50;99.90;;;;;;4662563;30;20037;-82
2021/12/14 08:05:27;;;;;;;39.20;21.30;;;9.50;99.90;;;;;;4682615;30;20026;-82
2021/12/14 08:08:16;;;;;;;33.60;20.05;;;9.50;99.90;;;;;;4665374;30;20113;-82
2021/12/14 08:11:09;;;;;;;29.33;19.80;;;9.30;99.90;;;;;;4677371;30;20041;-81
2021/12/14 08:13:44;;;;;;;30.80;18.60;;;9.20;99.90;;;;;;4668478;30;20033;-82
2021/12/14 08:16:10;;;;;;;30.98;17.77;;;9.10;99.90;;;;;;4686941;30;20049;-82
2021/12/14 08:18:39;;;;;;;32.47;18.40;;;9.00;99.90;;;;;;4670243;30;20037;-82
2021/12/14 08:21:20;;;;;;;36.10;19.20;;;9.10;99.90;;;;;;4679384;30;20044;-82
2021/12/14 08:23:57;;;;;;;30.17;19.05;;;9.10;99.90;;;;;;4695313;30;20073;-81
2021/12/14 08:26:31;;;;;;;29.98;17.95;;;9.20;99.90;;;;;;4695023;30;20064;-82
2021/12/14 08:29:07;;;;;;;30.88;18.80;;;9.20;99.90;;;;;;4668998;30;20132;-82
2021/12/14 08:31:39;;;;;;;33.35;19.08;;;9.20;99.90;;;;;;4668204;30;20040;-82
2021/12/14 08:34:08;;;;;;;34.58;19.98;;;9.10;99.90;;;;;;4684527;30;20325;-82
2021/12/14 08:36:44;;;;;;;28.10;16.88;;;9.10;99.90;;;;;;4681213;30;20286;-82
2021/12/14 08:39:22;;;;;;;30.88;19.67;;;9.00;99.90;;;;;;4676542;30;20068;-82
2021/12/14 08:41:55;;;;;;;33.55;20.50;;;9.00;99.90;;;;;;4699344;30;20069;-82
2021/12/14 08:44:36;;;;;;;38.88;20.95;;;9.00;99.90;;;;;;4671579;30;20034;-82
2021/12/14 08:47:12;;;;;;;35.33;21.83;;;9.00;99.90;;;;;;4682949;30;20053;-82
2021/12/14 08:49:40;;;;;;;39.42;21.60;;;9.00;99.90;;;;;;4681331;30;20049;-82
2021/12/14 08:52:07;;;;;;;36.88;21.88;;;9.00;99.90;;;;;;4669245;30;20042;-82
2021/12/14 08:54:35;;;;;;;39.97;22.88;;;9.20;99.90;;;;;;4697028;30;20033;-82
2021/12/14 08:57:00;;;;;;;;;;;9.30;99.90;;;;;;4661251;30;20330;-82
2021/12/14 08:59:27;;;;;;;33.87;20.67;;;9.40;99.90;;;;;;4686558;30;19918;-82
2021/12/14 09:01:57;;;;;;;39.05;21.75;;;9.50;99.90;;;;;;4666362;30;20376;-82
2021/12/14 09:04:34;;;;;;;38.90;22.50;;;9.60;99.90;;;;;;4665853;30;20049;-82
2021/12/14 09:07:11;;;;;;;57.05;21.65;;;9.60;99.90;;;;;;4679094;30;20030;-82
2021/12/14 09:09:38;;;;;;;43.95;21.67;;;9.60;99.90;;;;;;4676945;30;20061;-82
2021/12/14 09:12:18;;;;;;;33.83;20.90;;;9.70;99.90;;;;;;4678061;30;20062;-82
2021/12/14 09:14:47;;;;;;;34.00;22.75;;;9.60;99.90;;;;;;4677385;30;20045;-82
2021/12/14 09:17:17;;;;;;;34.95;21.00;;;9.50;99.90;;;;;;4665610;30;20033;-82
2021/12/14 09:19:47;;;;;;;40.92;24.48;;;9.60;99.90;;;;;;4663006;30;20046;-82
2021/12/14 09:22:19;;;;;;;37.28;22.08;;;9.50;99.90;;;;;;4678054;30;20037;-82
2021/12/14 09:24:45;;;;;;;40.08;20.35;;;9.40;99.90;;;;;;4669406;30;20171;-82
2021/12/14 09:27:18;;;;;;;36.25;22.67;;;9.50;99.90;;;;;;4666165;30;20050;-82
2021/12/14 09:29:44;;;;;;;35.45;21.58;;;9.70;99.90;;;;;;4666127;30;20045;-82
2021/12/14 09:32:21;;;;;;;34.53;20.13;;;9.80;99.90;;;;;;4672572;30;20046;-82
2021/12/14 09:34:47;;;;;;;35.20;21.35;;;9.90;99.90;;;;;;4678848;30;20048;-81
2021/12/14 09:37:14;;;;;;;34.05;21.10;;;10.00;99.90;;;;;;4673851;30;20038;-81
2021/12/14 09:39:42;;;;;;;;;;;10.00;99.90;;;;;;4663599;30;20034;-81
2021/12/14 09:42:12;;;;;;;37.60;19.85;;;10.10;99.90;;;;;;4675468;30;20166;-82
2021/12/14 09:44:38;;;;;;;29.98;19.35;;;10.20;99.90;;;;;;4663060;30;20225;-82
2021/12/14 09:47:13;;;;;;;38.08;21.63;;;10.20;99.90;;;;;;4676554;30;20108;-82
2021/12/14 09:49:40;;;;;;;34.65;19.95;;;10.20;99.90;;;;;;4684906;30;20121;-82
2021/12/14 09:52:14;;;;;;;41.95;21.23;;;10.30;99.90;;;;;;4667319;30;20199;-82
2021/12/14 09:54:40;;;;;;;36.33;21.33;;;10.20;99.90;;;;;;4680797;30;20034;-81
2021/12/14 09:57:11;;;;;;;37.58;21.05;;;10.20;99.90;;;;;;4663665;30;20041;-82
2021/12/14 09:59:37;;;;;;;33.22;20.25;;;10.10;99.90;;;;;;4663196;30;20272;-82
2021/12/14 10:02:06;;;;;;;32.17;20.73;;;10.10;99.90;;;;;;4671731;30;20069;-82
2021/12/14 10:05:03;;;;;;;34.03;21.20;;;10.30;99.90;;;;;;4687195;30;20101;-82
2021/12/14 10:07:29;;;;;;;31.95;19.80;;;10.20;99.90;;;;;;4592756;31;20124;-82
2021/12/14 10:09:59;;;;;;;31.92;19.92;;;10.10;99.90;;;;;;4586308;31;20051;-82
2021/12/14 10:15:18;;;;;;;34.90;20.27;;;10.20;99.90;;;;;;4594786;31;20035;-82
2021/12/14 10:17:45;;;;;;;29.20;19.08;;;10.30;99.90;;;;;;4587986;31;20040;-82
2021/12/14 10:20:18;;;;;;;30.33;19.80;;;10.50;99.90;;;;;;4588990;31;20315;-82
2021/12/14 10:22:45;;;;;;;41.33;20.48;;;10.60;99.90;;;;;;4588370;31;20095;-82
2021/12/14 10:25:13;;;;;;;;;;;10.60;99.90;;;;;;4592384;31;20079;-82
2021/12/14 10:27:39;;;;;;;35.80;20.77;;;10.60;99.90;;;;;;4593847;31;19925;-82
2021/12/14 10:30:20;;;;;;;51.53;22.30;;;10.60;99.90;;;;;;4590489;31;20073;-82
2021/12/14 10:32:47;;;;;;;39.13;20.55;;;10.70;99.90;;;;;;4594973;31;20313;-82
2021/12/14 10:35:16;;;;;;;;;;;10.60;99.90;;;;;;4579182;31;20160;-81
2021/12/14 10:43:15;;;;;;;41.08;22.63;;;10.40;99.90;;;;;;4601363;31;20040;-83
2021/12/14 10:46:09;;;;;;;39.33;21.23;;;10.40;99.90;;;;;;4657635;30;20117;-83
2021/12/14 10:48:40;;;;;;;31.38;20.00;;;10.30;99.90;;;;;;4676042;30;20064;-83
2021/12/14 10:51:13;;;;;;;32.63;21.13;;;10.40;99.90;;;;;;4682647;30;20044;-82
2021/12/14 10:53:45;;;;;;;28.73;19.77;;;10.50;99.90;;;;;;4694332;30;20042;-82
2021/12/14 10:56:17;;;;;;;33.72;19.70;;;10.60;99.90;;;;;;4654572;30;20349;-82
2021/12/14 10:58:46;;;;;;;31.48;20.42;;;10.80;99.90;;;;;;4662301;30;20034;-82
2021/12/14 11:01:17;;;;;;;35.33;21.25;;;10.90;99.90;;;;;;4664706;30;20037;-82
2021/12/14 11:03:50;;;;;;;35.50;21.92;;;10.90;99.80;;;;;;4676184;30;20360;-82
2021/12/14 11:06:22;;;;;;;50.88;24.15;;;11.00;99.70;;;;;;4678527;30;20099;-82
2021/12/14 11:09:39;;;;;;;39.55;23.83;;;10.90;99.30;;;;;;4678578;30;20036;-80
2021/12/14 11:11:59;;;;;;;37.45;24.25;;;10.80;99.50;;;;;;4703969;30;20081;-83
2021/12/14 11:14:34;;;;;;;44.15;25.52;;;10.70;99.20;;;;;;4681234;30;20093;-82
2021/12/14 11:20:13;;;;;;;48.35;23.67;;;10.50;99.80;;;;;;4681394;30;20037;-83
2021/12/14 11:22:50;;;;;;;42.33;23.95;;;10.50;99.70;;;;;;4664989;30;20042;-82
2021/12/14 11:25:23;;;;;;;47.03;26.20;;;10.40;99.90;;;;;;4664224;30;20033;-83
2021/12/14 11:28:00;;;;;;;51.00;26.73;;;10.30;99.90;;;;;;4687941;30;20050;-82
2021/12/14 11:30:34;;;;;;;44.05;26.70;;;10.20;99.90;;;;;;4686520;30;20312;-82
2021/12/14 11:33:08;;;;;;;44.63;27.45;;;10.10;99.90;;;;;;4682434;30;20034;-82
2021/12/14 11:35:41;;;;;;;41.63;25.27;;;10.10;99.90;;;;;;4685733;30;20030;-82
2021/12/14 11:38:22;;;;;;;44.53;23.75;;;10.10;99.90;;;;;;4690514;30;20105;-82
2021/12/14 11:40:48;;;;;;;48.53;26.77;;;10.20;99.90;;;;;;4681161;30;20033;-83
2021/12/14 11:43:18;;;;;;;41.97;24.33;;;10.20;99.90;;;;;;4664979;30;20426;-82
2021/12/14 11:45:47;;;;;;;39.65;23.55;;;10.30;99.90;;;;;;4665235;30;20037;-82
2021/12/14 11:48:14;;;;;;;47.53;28.25;;;10.40;99.90;;;;;;4653567;30;20038;-83
2021/12/14 11:50:47;;;;;;;48.70;26.42;;;10.30;99.90;;;;;;4670089;30;20052;-83
2021/12/14 11:53:17;;;;;;;44.75;26.10;;;10.10;99.90;;;;;;4666987;30;20038;-82
2021/12/14 11:55:55;;;;;;;44.38;26.90;;;10.10;99.90;;;;;;4672927;30;20464;-83
2021/12/14 11:58:40;;;;;;;46.95;27.20;;;10.10;99.90;;;;;;4662394;30;20502;-83
2021/12/14 12:01:29;;;;;;;55.25;27.63;;;10.00;99.90;;;;;;4694503;30;20123;-82
2021/12/14 12:04:02;;;;;;;46.38;24.65;;;10.10;99.90;;;;;;4696156;30;20230;-82
2021/12/14 12:09:32;;;;;;;40.13;24.40;;;10.40;99.90;;;;;;4705030;30;20034;-83
2021/12/14 12:12:12;;;;;;;45.33;25.63;;;10.40;99.90;;;;;;4686292;30;20041;-83
2021/12/14 12:14:49;;;;;;;43.83;25.50;;;10.50;99.90;;;;;;4692996;30;20113;-83
2021/12/14 12:17:30;;;;;;;39.38;24.80;;;10.40;99.90;;;;;;4681817;30;20237;-83
2021/12/14 12:20:07;;;;;;;45.30;25.92;;;10.40;99.80;;;;;;4667756;30;20341;-83
2021/12/14 12:22:38;;;;;;;46.45;25.90;;;10.30;99.90;;;;;;4680630;30;20041;-83
2021/12/14 12:25:08;;;;;;;49.65;27.67;;;10.10;99.90;;;;;;4669342;30;20064;-83
2021/12/14 12:27:42;;;;;;;52.67;28.05;;;10.00;99.90;;;;;;4694603;30;20389;-81
2021/12/14 12:30:32;;;;;;;47.67;27.48;;;10.00;99.90;;;;;;4670680;30;20207;-82
2021/12/14 12:33:03;;;;;;;50.55;29.70;;;10.00;99.90;;;;;;4680071;30;20030;-83
2021/12/14 12:35:41;;;;;;;47.67;28.85;;;10.20;99.90;;;;;;4686632;30;20033;-83
2021/12/14 12:38:26;;;;;;;45.58;25.88;;;10.30;99.90;;;;;;4679471;30;20082;-82
2021/12/14 12:40:59;;;;;;;47.50;26.77;;;10.20;99.90;;;;;;4668862;30;20051;-82
2021/12/14 12:43:59;;;;;;;44.20;26.45;;;10.20;99.90;;;;;;4688458;30;20272;-84
2021/12/14 12:46:31;;;;;;;44.90;24.30;;;10.20;99.90;;;;;;4620431;31;20071;-83
2021/12/14 12:49:13;;;;;;;44.28;25.90;;;10.20;99.90;;;;;;4596588;31;20154;-83
2021/12/14 12:51:48;;;;;;;49.90;26.13;;;10.40;99.90;;;;;;4604011;31;20036;-84
2021/12/14 12:54:19;;;;;;;50.83;26.55;;;10.40;99.90;;;;;;4593363;31;20397;-82
2021/12/14 12:56:51;;;;;;;47.45;26.23;;;10.50;99.90;;;;;;4609397;31;20048;-82
2021/12/14 12:59:37;;;;;;;43.13;24.98;;;10.70;99.90;;;;;;4608103;31;20040;-82
2021/12/14 13:02:24;;;;;;;50.00;26.92;;;10.70;99.80;;;;;;4607638;31;20044;-82
2021/12/14 13:04:54;;;;;;;45.70;26.50;;;10.70;99.50;;;;;;4604959;31;20047;-82
2021/12/14 13:07:31;;;;;;;44.42;25.73;;;10.60;99.60;;;;;;4592779;31;20048;-81
2021/12/14 13:10:00;;;;;;;;;;;10.60;99.90;;;;;;4594148;31;20040;-83
2021/12/14 13:12:41;;;;;;;46.90;26.50;;;10.60;99.90;;;;;;4609140;31;19928;-83
2021/12/14 13:15:28;;;;;;;40.25;25.08;;;10.60;99.90;;;;;;4598621;31;20038;-83
2021/12/14 13:18:21;;;;;;;40.50;24.55;;;10.60;99.90;;;;;;4620104;31;20260;-83
2021/12/14 13:20:51;;;;;;;46.28;26.25;;;10.50;99.80;;;;;;4594468;31;20031;-82
2021/12/14 13:23:22;;;;;;;50.35;28.38;;;10.40;99.90;;;;;;4639762;30;20097;-82
2021/12/14 13:25:49;;;;;;;49.70;27.00;;;10.30;99.90;;;;;;4664523;30;20036;-83
2021/12/14 13:28:16;;;;;;;47.38;26.85;;;10.20;99.90;;;;;;4655700;30;20066;-83
2021/12/14 13:30:43;;;;;;;47.70;28.25;;;10.20;99.90;;;;;;4662707;30;20030;-83
2021/12/14 13:33:27;;;;;;;61.50;28.58;;;10.10;99.90;;;;;;4677840;30;20044;-83
2021/12/14 13:35:53;;;;;;;49.28;25.80;;;10.10;99.90;;;;;;4697431;30;20038;-83
2021/12/14 13:38:19;;;;;;;47.60;25.23;;;10.00;99.90;;;;;;4679788;30;20044;-83
2021/12/14 13:40:47;;;;;;;45.53;27.58;;;10.10;99.90;;;;;;4670624;30;20294;-82
2021/12/14 13:43:21;;;;;;;42.83;26.63;;;10.20;99.90;;;;;;4667293;30;20042;-82
2021/12/14 13:45:58;;;;;;;43.20;25.05;;;10.30;99.90;;;;;;4692006;30;20325;-82
2021/12/14 13:48:33;;;;;;;41.60;25.60;;;10.30;99.90;;;;;;4679433;30;20045;-83
2021/12/14 13:51:05;;;;;;;44.53;26.60;;;10.40;99.90;;;;;;4680238;30;20041;-82
2021/12/14 13:53:31;;;;;;;44.60;27.10;;;10.30;99.90;;;;;;4681784;30;20045;-83
2021/12/14 13:55:59;;;;;;;45.05;27.33;;;10.30;99.90;;;;;;4667814;30;20113;-82
2021/12/14 13:58:31;;;;;;;50.42;28.05;;;10.30;99.90;;;;;;4690408;30;20329;-84
2021/12/14 14:01:00;;;;;;;44.80;27.73;;;10.20;99.90;;;;;;4664050;30;20165;-82
2021/12/14 14:03:29;;;;;;;44.95;27.70;;;10.20;99.90;;;;;;4681334;30;20030;-82
2021/12/14 14:05:57;;;;;;;54.10;30.60;;;10.10;99.90;;;;;;4681389;30;20053;-83
2021/12/14 14:08:30;;;;;;;51.65;30.15;;;10.00;99.90;;;;;;4666607;30;20026;-82
2021/12/14 14:10:57;;;;;;;53.45;29.95;;;9.80;99.90;;;;;;4665554;30;20337;-83
2021/12/14 14:13:30;;;;;;;53.13;29.98;;;9.80;99.90;;;;;;4654980;30;20093;-83
2021/12/14 14:16:00;;;;;;;47.10;27.55;;;9.70;99.90;;;;;;4663785;30;20038;-83
2021/12/14 14:18:30;;;;;;;47.05;27.92;;;9.70;99.90;;;;;;4651459;30;20050;-83
2021/12/14 14:20:58;;;;;;;53.40;30.45;;;9.70;99.90;;;;;;4690329;30;20030;-83
2021/12/14 14:23:33;;;;;;;52.45;30.80;;;9.70;99.90;;;;;;4667382;30;20037;-83
2021/12/14 14:26:08;;;;;;;49.58;30.50;;;9.60;99.90;;;;;;4692838;30;20042;-83
2021/12/14 14:28:47;;;;;;;57.00;32.50;;;9.60;99.90;;;;;;4664275;30;20034;-83
2021/12/14 14:31:35;;;;;;;51.83;31.10;;;9.60;99.90;;;;;;4677319;30;20038;-83
2021/12/14 14:34:01;;;;;;;47.67;28.50;;;9.50;99.90;;;;;;4677068;30;20038;-82
2021/12/14 14:36:32;;;;;;;57.75;32.30;;;9.50;99.90;;;;;;4656541;30;20117;-82
2021/12/14 14:39:17;;;;;;;58.35;31.80;;;9.50;99.90;;;;;;4671042;30;20065;-82
2021/12/14 14:41:47;;;;;;;66.20;33.00;;;9.50;99.90;;;;;;4677380;30;20228;-82
2021/12/14 14:44:32;;;;;;;60.80;32.25;;;9.50;99.90;;;;;;4668006;30;20333;-82
2021/12/14 14:47:20;;;;;;;55.45;31.45;;;9.30;99.90;;;;;;4666194;30;20296;-82
2021/12/14 14:49:46;;;;;;;57.10;32.05;;;9.20;99.90;;;;;;4671300;30;20049;-83
2021/12/14 14:52:18;;;;;;;62.85;33.60;;;9.20;99.90;;;;;;4685988;30;20030;-82
2021/12/14 14:54:48;;;;;;;56.72;31.63;;;9.20;99.90;;;;;;4695787;30;20084;-83
2021/12/14 14:57:14;;;;;;;54.78;31.85;;;9.10;99.90;;;;;;4674590;30;20037;-82
2021/12/14 15:00:06;;;;;;;57.17;34.20;;;9.00;99.90;;;;;;4678348;30;20117;-82
2021/12/14 15:02:34;;;;;;;59.55;32.63;;;9.00;99.90;;;;;;4595025;31;20055;-82
2021/12/14 15:05:14;;;;;;;53.88;31.20;;;9.00;99.90;;;;;;4604047;31;20084;-82
2021/12/14 15:08:04;;;;;;;65.25;32.47;;;9.00;99.90;;;;;;4588658;31;20050;-82
2021/12/14 15:10:45;;;;;;;56.47;31.77;;;8.90;99.90;;;;;;4522070;31;20045;-83
2021/12/14 15:13:28;;;;;;;52.67;30.25;;;8.90;99.90;;;;;;4521360;31;20057;-83
2021/12/14 15:16:09;;;;;;;60.25;32.88;;;8.90;99.90;;;;;;4521525;31;20371;-83
2021/12/14 15:18:50;;;;;;;53.58;31.13;;;8.90;99.90;;;;;;4531782;31;20076;-83
2021/12/14 15:21:48;;;;;;;57.25;32.53;;;8.90;99.90;;;;;;4521666;31;20049;-83
2021/12/14 15:24:28;;;;;;;60.88;32.78;;;8.80;99.90;;;;;;4528298;31;20334;-83
2021/12/14 15:27:09;;;;;;;61.45;31.38;;;8.80;99.90;;;;;;4528727;31;20053;-83
2021/12/14 15:29:57;;;;;;;58.15;32.15;;;8.80;99.90;;;;;;4524892;31;20149;-83
2021/12/14 15:32:25;;;;;;;56.75;33.35;;;8.80;99.90;;;;;;4524412;31;20042;-81
2021/12/14 15:35:06;;;;;;;58.58;30.35;;;8.80;99.90;;;;;;4525219;31;20070;-82
2021/12/14 15:37:36;;;;;;;53.88;30.45;;;8.80;99.90;;;;;;4528084;31;20050;-83
2021/12/14 15:40:20;;;;;;;51.17;30.40;;;8.80;99.90;;;;;;4575468;31;20245;-82
2021/12/14 15:42:55;;;;;;;55.92;30.20;;;8.80;99.90;;;;;;4605899;31;20048;-83
2021/12/14 15:45:43;;;;;;;62.13;33.08;;;8.80;99.90;;;;;;4607697;31;20036;-82
2021/12/14 15:48:31;;;;;;;58.25;33.47;;;8.80;99.90;;;;;;4633566;30;20049;-81
2021/12/14 15:50:59;;;;;;;50.28;31.25;;;8.80;99.90;;;;;;4656853;30;20215;-82
2021/12/14 15:53:36;;;;;;;53.03;32.05;;;8.70;99.90;;;;;;4662161;30;20030;-83
2021/12/14 15:56:18;;;;;;;61.67;32.80;;;8.70;99.90;;;;;;4642536;30;20035;-82
2021/12/14 15:58:48;;;;;;;62.47;32.38;;;8.70;99.90;;;;;;4680160;30;20267;-81
2021/12/14 16:01:22;;;;;;;62.17;31.70;;;8.70;99.90;;;;;;4656798;30;20045;-82
2021/12/14 16:03:48;;;;;;;60.83;33.20;;;8.70;99.90;;;;;;4658929;30;20250;-81
2021/12/14 16:06:14;;;;;;;62.63;33.53;;;8.70;99.90;;;;;;4645698;30;20058;-82
2021/12/14 16:08:42;;;;;;;54.58;32.15;;;8.70;99.90;;;;;;4646000;30;20105;-82
2021/12/14 16:16:31;;;;;;;;;;;8.40;99.90;;;;;;4677632;30;20054;-82
2021/12/14 16:18:57;;;;;;;;;;;8.30;99.90;;;;;;4661712;30;19926;-81
2021/12/14 16:21:25;;;;;;;58.50;29.57;;;8.30;99.90;;;;;;4651261;30;19951;-82
2021/12/14 16:23:53;;;;;;;54.88;30.75;;;8.30;99.90;;;;;;4664329;30;20322;-82
2021/12/14 16:26:23;;;;;;;59.08;30.85;;;8.40;99.90;;;;;;4664466;30;20110;-82
2021/12/14 16:28:53;;;;;;;51.03;29.27;;;8.40;99.90;;;;;;4664933;30;20246;-82
2021/12/14 16:31:30;;;;;;;62.67;31.63;;;8.50;99.90;;;;;;4661981;30;20035;-82
2021/12/14 16:34:04;;;;;;;61.42;32.88;;;8.50;99.90;;;;;;4661846;30;20026;-82
2021/12/14 16:36:33;;;;;;;59.22;31.25;;;8.50;99.90;;;;;;4667344;30;20334;-83
2021/12/14 16:39:14;;;;;;;62.33;31.27;;;8.40;99.90;;;;;;4647629;30;20034;-83
2021/12/14 16:41:48;;;;;;;57.75;31.42;;;8.40;99.90;;;;;;4682228;30;20093;-82
2021/12/14 16:44:20;;;;;;;62.08;30.48;;;8.40;99.90;;;;;;4657295;30;20045;-82
2021/12/14 16:47:00;;;;;;;54.55;28.88;;;8.40;99.90;;;;;;4675638;30;20062;-82
2021/12/14 16:49:30;;;;;;;61.80;33.22;;;8.40;99.90;;;;;;4682884;30;20341;-83
2021/12/14 16:52:10;;;;;;;57.08;31.00;;;8.50;99.90;;;;;;4651013;30;20038;-83
2021/12/14 16:54:39;;;;;;;61.80;32.40;;;8.50;99.90;;;;;;4664601;30;20038;-83
2021/12/14 16:57:09;;;;;;;55.58;30.02;;;8.40;99.90;;;;;;4680431;30;20038;-83
2021/12/14 16:59:40;;;;;;;57.53;31.70;;;8.40;99.90;;;;;;4677983;30;20048;-83
2021/12/14 17:02:16;;;;;;;59.95;32.55;;;8.50;99.90;;;;;;4664880;30;20045;-83
2021/12/14 17:04:44;;;;;;;57.20;30.20;;;8.50;99.90;;;;;;4664305;30;20369;-82
2021/12/14 17:07:14;;;;;;;55.00;30.85;;;8.50;99.90;;;;;;4667763;30;20054;-82
2021/12/14 17:09:40;;;;;;;58.25;29.45;;;8.60;99.90;;;;;;4683943;30;20046;-82
2021/12/14 17:12:13;;;;;;;58.17;29.13;;;8.70;99.90;;;;;;4664693;30;20333;-83
2021/12/14 17:14:43;;;;;;;52.83;30.27;;;8.70;99.90;;;;;;4687840;30;20256;-83
2021/12/14 17:17:15;;;;;;;58.50;32.13;;;8.80;99.90;;;;;;4661158;30;20085;-83
2021/12/14 17:19:45;;;;;;;54.10;29.58;;;8.80;99.90;;;;;;4677237;30;20038;-83
2021/12/14 17:22:24;;;;;;;52.33;29.10;;;8.80;99.90;;;;;;4695395;30;20177;-82
2021/12/14 17:24:55;;;;;;;50.55;28.55;;;8.80;99.90;;;;;;4659626;30;20056;-82
2021/12/14 17:27:24;;;;;;;55.30;29.33;;;8.80;99.90;;;;;;4667912;30;20038;-83
2021/12/14 17:29:54;;;;;;;59.70;32.28;;;8.80;99.90;;;;;;4675124;30;20094;-84